KWJF/WJF METAR and TAF weather

Enter ICAO airport designator
Station Type Date Time Source
KWJF METAR 2018/12/13 08:56 UTC NOAA

KWJF 130856Z AUTO 00000KT 10SM CLR 02/M01 A3026 RMK AO2 SLP254 T00221011 58003


Station Type Date Time Source
KWJF Decoded METAR 2018/12/13 08:56 UTC NOAA

LANCASTER FOX AIRFIELD, CA, United States (KWJF) 34-44N 118-13W
Dec 13, 2018 - 03:56 AM EST / 2018.12.13 0856 UTC
Wind: Calm:0
Visibility: 10 mile(s):0
Sky conditions: clear
Temperature: 36.0 F (2.2 C)
Dew Point: 30.0 F (-1.1 C)
Relative Humidity: 78%
Pressure (altimeter): 30.26 in. Hg (1024 hPa)
Pressure tendency: 0.01 inches (0.3 hPa) lower than three hours ago
ob: KWJF 130856Z AUTO 00000KT 10SM CLR 02/M01 A3026 RMK AO2 SLP254 T00221011 58003
cycle: 9

Station Type Date Time Source
KWJF TAF 2018/12/13 06:42 UTC NOAA

TAF KWJF 130539Z 1306/1406 VRB03KT P6SM SKC
FM131900 05012KT P6SM SKC
FM140300 VRB03KT P6SM SKC


Example: see airport list